<?xml version="1.0" encoding="utf-8"?>
<gpx xmlns:xsi="http://www.w3.org/2001/XMLSchema-instance" xmlns:xsd="http://www.w3.org/2001/XMLSchema" version="1.1" creator="Shapelink.com" xmlns="http://www.topografix.com/GPX/1/1" xmlns:gpxtpx="http://www.garmin.com/xmlschemas/TrackPointExtension/v1">
  <metadata>
    <name>Övrigt 3.05 km, 2019-01-28</name>
    <desc></desc>
    <author><name>Marian Moron</name></author> 
    <time>2019-01-28T20:26:50Z</time>
  </metadata>
  <trk>
    <name>Övrigt 3.05 km, 2019-01-28</name>
    <trkseg>
      <trkpt lat="51.229959229188" lon="4.458172934805">
        <ele>6</ele>
        <time>2019-01-28T20:30:07Z</time>
      </trkpt>
      <trkpt lat="51.229906087942" lon="4.457967075341">
        <ele>9.6</ele>
        <time>2019-01-28T20:30:40Z</time>
      </trkpt>
      <trkpt lat="51.229852276144" lon="4.457517302587">
        <ele>5.8</ele>
        <time>2019-01-28T20:31:03Z</time>
      </trkpt>
      <trkpt lat="51.229880104052" lon="4.457429627913">
        <ele>6.2</ele>
        <time>2019-01-28T20:31:14Z</time>
      </trkpt>
      <trkpt lat="51.229922013552" lon="4.457171968307">
        <ele>8.2</ele>
        <time>2019-01-28T20:31:28Z</time>
      </trkpt>
      <trkpt lat="51.22980986373" lon="4.456821604887">
        <ele>8.4</ele>
        <time>2019-01-28T20:31:50Z</time>
      </trkpt>
      <trkpt lat="51.229761583986" lon="4.456791430047">
        <ele>9.2</ele>
        <time>2019-01-28T20:31:53Z</time>
      </trkpt>
      <trkpt lat="51.229579696756" lon="4.456839961248">
        <ele>10.4</ele>
        <time>2019-01-28T20:32:06Z</time>
      </trkpt>
      <trkpt lat="51.229570560485" lon="4.456643321874">
        <ele>11.4</ele>
        <time>2019-01-28T20:32:19Z</time>
      </trkpt>
      <trkpt lat="51.229670556552" lon="4.456524466532">
        <ele>11.6</ele>
        <time>2019-01-28T20:32:31Z</time>
      </trkpt>
      <trkpt lat="51.230125274627" lon="4.45652379598">
        <ele>16.4</ele>
        <time>2019-01-28T20:33:04Z</time>
      </trkpt>
      <trkpt lat="51.230137931296" lon="4.4565305015">
        <ele>16.6</ele>
        <time>2019-01-28T20:33:05Z</time>
      </trkpt>
      <trkpt lat="51.230449486519" lon="4.456432768546">
        <ele>21.4</ele>
        <time>2019-01-28T20:33:23Z</time>
      </trkpt>
      <trkpt lat="51.230471111821" lon="4.456411394701">
        <ele>21.2</ele>
        <time>2019-01-28T20:33:25Z</time>
      </trkpt>
      <trkpt lat="51.230911329209" lon="4.456317936516">
        <ele>23</ele>
        <time>2019-01-28T20:33:58Z</time>
      </trkpt>
      <trkpt lat="51.230933541244" lon="4.456371748314">
        <ele>23</ele>
        <time>2019-01-28T20:34:03Z</time>
      </trkpt>
      <trkpt lat="51.230987017766" lon="4.456316092498">
        <ele>22</ele>
        <time>2019-01-28T20:34:08Z</time>
      </trkpt>
      <trkpt lat="51.231095144276" lon="4.456198075346">
        <ele>21.6</ele>
        <time>2019-01-28T20:34:29Z</time>
      </trkpt>
      <trkpt lat="51.23107888339" lon="4.45621701844">
        <ele>21.6</ele>
        <time>2019-01-28T20:34:31Z</time>
      </trkpt>
      <trkpt lat="51.230995483485" lon="4.456345932062">
        <ele>18.6</ele>
        <time>2019-01-28T20:34:42Z</time>
      </trkpt>
      <trkpt lat="51.230972852355" lon="4.456287174943">
        <ele>15</ele>
        <time>2019-01-28T20:34:51Z</time>
      </trkpt>
      <trkpt lat="51.230985425205" lon="4.456261610148">
        <ele>13.8</ele>
        <time>2019-01-28T20:34:54Z</time>
      </trkpt>
      <trkpt lat="51.231034040225" lon="4.456248366746">
        <ele>12.4</ele>
        <time>2019-01-28T20:34:59Z</time>
      </trkpt>
      <trkpt lat="51.231063544513" lon="4.45625725156">
        <ele>12</ele>
        <time>2019-01-28T20:35:01Z</time>
      </trkpt>
      <trkpt lat="51.231126492582" lon="4.456322965656">
        <ele>9</ele>
        <time>2019-01-28T20:35:10Z</time>
      </trkpt>
      <trkpt lat="51.231160774553" lon="4.456331934289">
        <ele>8.6</ele>
        <time>2019-01-28T20:35:13Z</time>
      </trkpt>
      <trkpt lat="51.23126496157" lon="4.45695462564">
        <ele>8.8</ele>
        <time>2019-01-28T20:35:43Z</time>
      </trkpt>
      <trkpt lat="51.231261357353" lon="4.457279927179">
        <ele>4.2</ele>
        <time>2019-01-28T20:36:03Z</time>
      </trkpt>
      <trkpt lat="51.231233026531" lon="4.457511602895">
        <ele>0</ele>
        <time>2019-01-28T20:36:16Z</time>
      </trkpt>
      <trkpt lat="51.231420781091" lon="4.458135467712">
        <ele>0</ele>
        <time>2019-01-28T20:36:49Z</time>
      </trkpt>
      <trkpt lat="51.231430001181" lon="4.458131528219">
        <ele>0</ele>
        <time>2019-01-28T20:36:52Z</time>
      </trkpt>
      <trkpt lat="51.231438550719" lon="4.458297908934">
        <ele>0</ele>
        <time>2019-01-28T20:37:01Z</time>
      </trkpt>
      <trkpt lat="51.231453302863" lon="4.458333867285">
        <ele>0</ele>
        <time>2019-01-28T20:37:03Z</time>
      </trkpt>
      <trkpt lat="51.231573080214" lon="4.458476694861">
        <ele>7.8</ele>
        <time>2019-01-28T20:37:27Z</time>
      </trkpt>
      <trkpt lat="51.231639967776" lon="4.458748184602">
        <ele>5.2</ele>
        <time>2019-01-28T20:37:38Z</time>
      </trkpt>
      <trkpt lat="51.231717751808" lon="4.459044987681">
        <ele>5.8</ele>
        <time>2019-01-28T20:37:53Z</time>
      </trkpt>
      <trkpt lat="51.231752955788" lon="4.459240621227">
        <ele>3.2</ele>
        <time>2019-01-28T20:38:03Z</time>
      </trkpt>
      <trkpt lat="51.231785393741" lon="4.45950272324">
        <ele>2</ele>
        <time>2019-01-28T20:38:16Z</time>
      </trkpt>
      <trkpt lat="51.231785896655" lon="4.459567599146">
        <ele>2</ele>
        <time>2019-01-28T20:38:22Z</time>
      </trkpt>
      <trkpt lat="51.231876588813" lon="4.459968170147">
        <ele>0.8</ele>
        <time>2019-01-28T20:38:43Z</time>
      </trkpt>
      <trkpt lat="51.232012794688" lon="4.460384331482">
        <ele>0</ele>
        <time>2019-01-28T20:39:07Z</time>
      </trkpt>
      <trkpt lat="51.232038359483" lon="4.461099642828">
        <ele>4.6</ele>
        <time>2019-01-28T20:39:43Z</time>
      </trkpt>
      <trkpt lat="51.232197447945" lon="4.461561820794">
        <ele>0</ele>
        <time>2019-01-28T20:40:06Z</time>
      </trkpt>
      <trkpt lat="51.232259809281" lon="4.461513624869">
        <ele>0</ele>
        <time>2019-01-28T20:40:16Z</time>
      </trkpt>
      <trkpt lat="51.232291325225" lon="4.461535082533">
        <ele>3.6</ele>
        <time>2019-01-28T20:40:20Z</time>
      </trkpt>
      <trkpt lat="51.232454269361" lon="4.46155377417">
        <ele>4</ele>
        <time>2019-01-28T20:40:35Z</time>
      </trkpt>
      <trkpt lat="51.232488886608" lon="4.461739181798">
        <ele>7.8</ele>
        <time>2019-01-28T20:40:43Z</time>
      </trkpt>
      <trkpt lat="51.232454185542" lon="4.461834232544">
        <ele>12.6</ele>
        <time>2019-01-28T20:40:50Z</time>
      </trkpt>
      <trkpt lat="51.232287050456" lon="4.462489110391">
        <ele>1.8</ele>
        <time>2019-01-28T20:41:22Z</time>
      </trkpt>
      <trkpt lat="51.232360559719" lon="4.462835282861">
        <ele>0</ele>
        <time>2019-01-28T20:41:41Z</time>
      </trkpt>
      <trkpt lat="51.23234790305" lon="4.462912061065">
        <ele>0</ele>
        <time>2019-01-28T20:41:46Z</time>
      </trkpt>
      <trkpt lat="51.232444546357" lon="4.463522347204">
        <ele>0</ele>
        <time>2019-01-28T20:42:16Z</time>
      </trkpt>
      <trkpt lat="51.23244848585" lon="4.464139087406">
        <ele>3.2</ele>
        <time>2019-01-28T20:42:42Z</time>
      </trkpt>
      <trkpt lat="51.232484276563" lon="4.46429465547">
        <ele>4.2</ele>
        <time>2019-01-28T20:42:52Z</time>
      </trkpt>
      <trkpt lat="51.232876214207" lon="4.464665554545">
        <ele>4.4</ele>
        <time>2019-01-28T20:43:15Z</time>
      </trkpt>
      <trkpt lat="51.232960117026" lon="4.464727580605">
        <ele>4.8</ele>
        <time>2019-01-28T20:43:22Z</time>
      </trkpt>
      <trkpt lat="51.232969085659" lon="4.464766221164">
        <ele>4.8</ele>
        <time>2019-01-28T20:43:24Z</time>
      </trkpt>
      <trkpt lat="51.232985849459" lon="4.464834868925">
        <ele>3</ele>
        <time>2019-01-28T20:43:29Z</time>
      </trkpt>
      <trkpt lat="51.233005295467" lon="4.464859679349">
        <ele>2.2</ele>
        <time>2019-01-28T20:43:35Z</time>
      </trkpt>
      <trkpt lat="51.233014934652" lon="4.464837634952">
        <ele>2.4</ele>
        <time>2019-01-28T20:43:37Z</time>
      </trkpt>
      <trkpt lat="51.233056927971" lon="4.464913910242">
        <ele>5.8</ele>
        <time>2019-01-28T20:43:49Z</time>
      </trkpt>
      <trkpt lat="51.233080313472" lon="4.464980043433">
        <ele>8</ele>
        <time>2019-01-28T20:43:55Z</time>
      </trkpt>
      <trkpt lat="51.232928349625" lon="4.465315822347">
        <ele>9.6</ele>
        <time>2019-01-28T20:44:14Z</time>
      </trkpt>
      <trkpt lat="51.232896163129" lon="4.465382542271">
        <ele>11.2</ele>
        <time>2019-01-28T20:44:18Z</time>
      </trkpt>
      <trkpt lat="51.232811086844" lon="4.465560825284">
        <ele>10.8</ele>
        <time>2019-01-28T20:44:30Z</time>
      </trkpt>
      <trkpt lat="51.232553594876" lon="4.466142445325">
        <ele>14.8</ele>
        <time>2019-01-28T20:45:04Z</time>
      </trkpt>
      <trkpt lat="51.232512439747" lon="4.466194161648">
        <ele>14.8</ele>
        <time>2019-01-28T20:45:10Z</time>
      </trkpt>
      <trkpt lat="51.232424345978" lon="4.466383341131">
        <ele>16.2</ele>
        <time>2019-01-28T20:45:20Z</time>
      </trkpt>
      <trkpt lat="51.232158807386" lon="4.466849123314">
        <ele>17.4</ele>
        <time>2019-01-28T20:45:53Z</time>
      </trkpt>
      <trkpt lat="51.232147491821" lon="4.466885081665">
        <ele>18.4</ele>
        <time>2019-01-28T20:45:57Z</time>
      </trkpt>
      <trkpt lat="51.232070965074" lon="4.467548006136">
        <ele>8.2</ele>
        <time>2019-01-28T20:46:26Z</time>
      </trkpt>
      <trkpt lat="51.232059062776" lon="4.467553202914">
        <ele>7.8</ele>
        <time>2019-01-28T20:46:27Z</time>
      </trkpt>
      <trkpt lat="51.231726385165" lon="4.467935249916">
        <ele>7.8</ele>
        <time>2019-01-28T20:46:57Z</time>
      </trkpt>
      <trkpt lat="51.231689337167" lon="4.468143121036">
        <ele>5.4</ele>
        <time>2019-01-28T20:47:07Z</time>
      </trkpt>
      <trkpt lat="51.231686822597" lon="4.468174720799">
        <ele>5</ele>
        <time>2019-01-28T20:47:10Z</time>
      </trkpt>
      <trkpt lat="51.231662682725" lon="4.468208332218">
        <ele>4.6</ele>
        <time>2019-01-28T20:47:15Z</time>
      </trkpt>
      <trkpt lat="51.231373255718" lon="4.468756508478">
        <ele>2.8</ele>
        <time>2019-01-28T20:47:45Z</time>
      </trkpt>
      <trkpt lat="51.231222381518" lon="4.468955410965">
        <ele>0.6</ele>
        <time>2019-01-28T20:48:03Z</time>
      </trkpt>
      <trkpt lat="51.231193463963" lon="4.468946777608">
        <ele>0.2</ele>
        <time>2019-01-28T20:48:06Z</time>
      </trkpt>
      <trkpt lat="51.230843016724" lon="4.469359250907">
        <ele>0</ele>
        <time>2019-01-28T20:48:37Z</time>
      </trkpt>
      <trkpt lat="51.230756599335" lon="4.469382720227">
        <ele>0</ele>
        <time>2019-01-28T20:48:52Z</time>
      </trkpt>
      <trkpt lat="51.230509668561" lon="4.469541138137">
        <ele>0</ele>
        <time>2019-01-28T20:49:12Z</time>
      </trkpt>
      <trkpt lat="51.23017615276" lon="4.469775998975">
        <ele>0</ele>
        <time>2019-01-28T20:49:46Z</time>
      </trkpt>
      <trkpt lat="51.229745490738" lon="4.470038687721">
        <ele>0</ele>
        <time>2019-01-28T20:50:17Z</time>
      </trkpt>
      <trkpt lat="51.229305776264" lon="4.470167685162">
        <ele>0</ele>
        <time>2019-01-28T20:50:49Z</time>
      </trkpt>
      <trkpt lat="51.228854746225" lon="4.470139102883">
        <ele>0</ele>
        <time>2019-01-28T20:51:24Z</time>
      </trkpt>
      <trkpt lat="51.228720300549" lon="4.470085877818">
        <ele>0.8</ele>
        <time>2019-01-28T20:51:48Z</time>
      </trkpt>
      <trkpt lat="51.228640672499" lon="4.469848921505">
        <ele>0.8</ele>
        <time>2019-01-28T20:52:01Z</time>
      </trkpt>
      <trkpt lat="51.228591554565" lon="4.469736520226">
        <ele>0.4</ele>
        <time>2019-01-28T20:52:10Z</time>
      </trkpt>
      <trkpt lat="51.22837991159" lon="4.469186751405">
        <ele>0.8</ele>
        <time>2019-01-28T20:52:54Z</time>
      </trkpt>
      <trkpt lat="51.228352167501" lon="4.469077032334">
        <ele>0.4</ele>
        <time>2019-01-28T20:53:01Z</time>
      </trkpt>
      <trkpt lat="51.228361219953" lon="4.469005534727">
        <ele>0</ele>
        <time>2019-01-28T20:53:13Z</time>
      </trkpt>
      <trkpt lat="51.228243621896" lon="4.468934288577">
        <ele>3.4</ele>
        <time>2019-01-28T20:53:43Z</time>
      </trkpt>
      <trkpt lat="51.228140105431" lon="4.468626840485">
        <ele>2.6</ele>
        <time>2019-01-28T20:54:03Z</time>
      </trkpt>
      <trkpt lat="51.228129879513" lon="4.468501111985">
        <ele>1.8</ele>
        <time>2019-01-28T20:54:15Z</time>
      </trkpt>
      <trkpt lat="51.228097022465" lon="4.468429362921">
        <ele>1.8</ele>
        <time>2019-01-28T20:54:32Z</time>
      </trkpt>
      <trkpt lat="51.228062321399" lon="4.468312016321">
        <ele>0.8</ele>
        <time>2019-01-28T20:54:41Z</time>
      </trkpt>
      <trkpt lat="51.228025021944" lon="4.468224174009">
        <ele>1</ele>
        <time>2019-01-28T20:54:57Z</time>
      </trkpt>
      <trkpt lat="51.227956206545" lon="4.467869284363">
        <ele>0.2</ele>
        <time>2019-01-28T20:55:26Z</time>
      </trkpt>
      <trkpt lat="51.227900802186" lon="4.467703993295">
        <ele>2.8</ele>
        <time>2019-01-28T20:55:36Z</time>
      </trkpt>
      <trkpt lat="51.227829304579" lon="4.467572565103">
        <ele>1.6</ele>
        <time>2019-01-28T20:55:57Z</time>
      </trkpt>
      <trkpt lat="51.227744479751" lon="4.467337452808">
        <ele>5.6</ele>
        <time>2019-01-28T20:56:17Z</time>
      </trkpt>
      <trkpt lat="51.22766996466" lon="4.467028412155">
        <ele>6.8</ele>
        <time>2019-01-28T20:56:35Z</time>
      </trkpt>
      <trkpt lat="51.227726542485" lon="4.466940234567">
        <ele>5.8</ele>
        <time>2019-01-28T20:56:46Z</time>
      </trkpt>
      <trkpt lat="51.227744060656" lon="4.466849123314">
        <ele>4.8</ele>
        <time>2019-01-28T20:56:52Z</time>
      </trkpt>
      <trkpt lat="51.227802482499" lon="4.466514014952">
        <ele>5.6</ele>
        <time>2019-01-28T20:57:13Z</time>
      </trkpt>
      <trkpt lat="51.227807176363" lon="4.46646389119">
        <ele>5.4</ele>
        <time>2019-01-28T20:57:16Z</time>
      </trkpt>
      <trkpt lat="51.227858389772" lon="4.466309412773">
        <ele>3.6</ele>
        <time>2019-01-28T20:57:33Z</time>
      </trkpt>
      <trkpt lat="51.227865430568" lon="4.465582702043">
        <ele>7.4</ele>
        <time>2019-01-28T20:58:15Z</time>
      </trkpt>
      <trkpt lat="51.227902813842" lon="4.464854063476">
        <ele>12.8</ele>
        <time>2019-01-28T20:58:49Z</time>
      </trkpt>
      <trkpt lat="51.227858138315" lon="4.464132298067">
        <ele>8.4</ele>
        <time>2019-01-28T20:59:25Z</time>
      </trkpt>
      <trkpt lat="51.227858222134" lon="4.464115785724">
        <ele>8.4</ele>
        <time>2019-01-28T20:59:26Z</time>
      </trkpt>
      <trkpt lat="51.227846152198" lon="4.463876817755">
        <ele>11.2</ele>
        <time>2019-01-28T20:59:42Z</time>
      </trkpt>
      <trkpt lat="51.227855372288" lon="4.463155974355">
        <ele>7</ele>
        <time>2019-01-28T21:00:17Z</time>
      </trkpt>
      <trkpt lat="51.227833746986" lon="4.46243722643">
        <ele>2.6</ele>
        <time>2019-01-28T21:00:57Z</time>
      </trkpt>
      <trkpt lat="51.227784377595" lon="4.461718981419">
        <ele>2</ele>
        <time>2019-01-28T21:01:37Z</time>
      </trkpt>
      <trkpt lat="51.227797201902" lon="4.461306172844">
        <ele>3.6</ele>
        <time>2019-01-28T21:02:13Z</time>
      </trkpt>
      <trkpt lat="51.227813546607" lon="4.461253618331">
        <ele>6</ele>
        <time>2019-01-28T21:02:49Z</time>
      </trkpt>
      <trkpt lat="51.227846906569" lon="4.46053621151">
        <ele>3</ele>
        <time>2019-01-28T21:03:26Z</time>
      </trkpt>
      <trkpt lat="51.228101967786" lon="4.460420708928">
        <ele>5.4</ele>
        <time>2019-01-28T21:03:59Z</time>
      </trkpt>
      <trkpt lat="51.228371194414" lon="4.459886865717">
        <ele>2.8</ele>
        <time>2019-01-28T21:04:36Z</time>
      </trkpt>
      <trkpt lat="51.228547717228" lon="4.459247159109">
        <ele>8</ele>
        <time>2019-01-28T21:05:12Z</time>
      </trkpt>
      <trkpt lat="51.228513099981" lon="4.458530674297">
        <ele>5</ele>
        <time>2019-01-28T21:05:43Z</time>
      </trkpt>
      <trkpt lat="51.228452498844" lon="4.457800107893">
        <ele>5.8</ele>
        <time>2019-01-28T21:06:19Z</time>
      </trkpt>
      <trkpt lat="51.22838158797" lon="4.457421329832">
        <ele>7</ele>
        <time>2019-01-28T21:06:51Z</time>
      </trkpt>
      <trkpt lat="51.228183691311" lon="4.457381431988">
        <ele>9.8</ele>
        <time>2019-01-28T21:07:14Z</time>
      </trkpt>
      <trkpt lat="51.228437076148" lon="4.457264588302">
        <ele>13.8</ele>
        <time>2019-01-28T21:07:37Z</time>
      </trkpt>
      <trkpt lat="51.228478315096" lon="4.457317645729">
        <ele>12.6</ele>
        <time>2019-01-28T21:07:40Z</time>
      </trkpt>
      <trkpt lat="51.228572443833" lon="4.458027425021">
        <ele>7</ele>
        <time>2019-01-28T21:08:09Z</time>
      </trkpt>
      <trkpt lat="51.228598930637" lon="4.458153907892">
        <ele>4.8</ele>
        <time>2019-01-28T21:08:15Z</time>
      </trkpt>
      <trkpt lat="51.22877637546" lon="4.458073022557">
        <ele>5</ele>
        <time>2019-01-28T21:08:32Z</time>
      </trkpt>
      <trkpt lat="51.229029089745" lon="4.458062461363">
        <ele>6.8</ele>
        <time>2019-01-28T21:08:57Z</time>
      </trkpt>
      <trkpt lat="51.229476096472" lon="4.457913431181">
        <ele>4.4</ele>
        <time>2019-01-28T21:09:28Z</time>
      </trkpt>
      <trkpt lat="51.229633508554" lon="4.458010661221">
        <ele>9</ele>
        <time>2019-01-28T21:09:39Z</time>
      </trkpt>
      <trkpt lat="51.22968581161" lon="4.458031867428">
        <ele>15.4</ele>
        <time>2019-01-28T21:09:56Z</time>
      </trkpt>
    </trkseg>
  </trk>
</gpx>